sensor_id;sensor_type;location;lat;lon;timestamp;pressure;altitude;pressure_sealevel;temperature;humidity
28000;BME280;15328;50.860;10.562;2023-06-22T00:02:58;96869.81;;;20.98;55.82
28000;BME280;15328;50.860;10.562;2023-06-22T00:08:02;96880.38;;;20.95;55.85
28000;BME280;15328;50.860;10.562;2023-06-22T00:13:03;96875.25;;;20.93;55.74
28000;BME280;15328;50.860;10.562;2023-06-22T00:18:05;96857.69;;;20.86;55.85
28000;BME280;15328;50.860;10.562;2023-06-22T00:23:06;96847.13;;;20.79;55.93
28000;BME280;15328;50.860;10.562;2023-06-22T00:28:09;96856.59;;;20.77;56.18
28000;BME280;15328;50.860;10.562;2023-06-22T00:33:10;96847.19;;;20.59;56.88
28000;BME280;15328;50.860;10.562;2023-06-22T00:38:11;96849.06;;;20.63;56.80
28000;BME280;15328;50.860;10.562;2023-06-22T00:43:11;96843.38;;;20.65;57.00
28000;BME280;15328;50.860;10.562;2023-06-22T00:48:12;96847.97;;;20.70;56.94
28000;BME280;15328;50.860;10.562;2023-06-22T00:53:13;96848.25;;;20.68;57.31
28000;BME280;15328;50.860;10.562;2023-06-22T00:58:14;96845.81;;;20.66;57.71
28000;BME280;15328;50.860;10.562;2023-06-22T01:03:14;96853.09;;;20.71;57.76
28000;BME280;15328;50.860;10.562;2023-06-22T01:13:50;96833.13;;;20.67;58.23
28000;BME280;15328;50.860;10.562;2023-06-22T01:18:57;96825.28;;;20.65;57.91
28000;BME280;15328;50.860;10.562;2023-06-22T01:24:20;96817.19;;;20.60;58.80
28000;BME280;15328;50.860;10.562;2023-06-22T01:29:23;96799.63;;;20.63;58.97
28000;BME280;15328;50.860;10.562;2023-06-22T01:40:15;96790.97;;;20.61;59.08
28000;BME280;15328;50.860;10.562;2023-06-22T01:45:15;96757.19;;;20.63;58.93
28000;BME280;15328;50.860;10.562;2023-06-22T01:50:16;96759.91;;;20.58;58.92
28000;BME280;15328;50.860;10.562;2023-06-22T01:55:16;96712.06;;;20.54;59.72
28000;BME280;15328;50.860;10.562;2023-06-22T02:00:21;96765.56;;;20.47;59.79
28000;BME280;15328;50.860;10.562;2023-06-22T02:05:26;96794.19;;;20.37;60.30
28000;BME280;15328;50.860;10.562;2023-06-22T02:10:28;96798.28;;;20.40;60.47
28000;BME280;15328;50.860;10.562;2023-06-22T02:15:29;96807.19;;;20.46;60.82
28000;BME280;15328;50.860;10.562;2023-06-22T02:20:29;96813.94;;;20.53;60.82
28000;BME280;15328;50.860;10.562;2023-06-22T02:25:30;96816.91;;;20.57;60.80
28000;BME280;15328;50.860;10.562;2023-06-22T02:30:31;96829.63;;;20.61;60.71
28000;BME280;15328;50.860;10.562;2023-06-22T02:35:32;96843.13;;;20.66;61.17
28000;BME280;15328;50.860;10.562;2023-06-22T02:40:35;96853.91;;;20.77;61.24
28000;BME280;15328;50.860;10.562;2023-06-22T02:45:35;96869.31;;;20.86;61.05
28000;BME280;15328;50.860;10.562;2023-06-22T02:50:36;96885.00;;;20.89;61.17
28000;BME280;15328;50.860;10.562;2023-06-22T02:55:36;96900.38;;;20.99;61.01
28000;BME280;15328;50.860;10.562;2023-06-22T03:00:36;96922.53;;;21.06;61.12
28000;BME280;15328;50.860;10.562;2023-06-22T03:05:39;96913.06;;;21.09;61.32
28000;BME280;15328;50.860;10.562;2023-06-22T03:10:40;96912.53;;;21.17;61.22
28000;BME280;15328;50.860;10.562;2023-06-22T03:15:40;96905.50;;;21.26;61.15
28000;BME280;15328;50.860;10.562;2023-06-22T03:20:41;96900.88;;;21.32;61.35
28000;BME280;15328;50.860;10.562;2023-06-22T03:25:45;96896.81;;;21.34;61.08
28000;BME280;15328;50.860;10.562;2023-06-22T03:30:45;96896.56;;;21.31;61.15
28000;BME280;15328;50.860;10.562;2023-06-22T03:35:45;96844.09;;;21.26;61.19
28000;BME280;15328;50.860;10.562;2023-06-22T03:40:46;96803.75;;;21.30;60.95
28000;BME280;15328;50.860;10.562;2023-06-22T03:45:46;96772.66;;;21.22;60.92
28000;BME280;15328;50.860;10.562;2023-06-22T03:50:46;96739.19;;;21.03;61.15
28000;BME280;15328;50.860;10.562;2023-06-22T03:55:51;96770.34;;;20.95;61.83
28000;BME280;15328;50.860;10.562;2023-06-22T04:00:52;96802.19;;;21.04;61.79
28000;BME280;15328;50.860;10.562;2023-06-22T04:05:53;96815.16;;;21.07;62.01
28000;BME280;15328;50.860;10.562;2023-06-22T04:10:53;96810.59;;;21.12;62.16
28000;BME280;15328;50.860;10.562;2023-06-22T04:15:54;96807.34;;;21.10;62.89
28000;BME280;15328;50.860;10.562;2023-06-22T04:20:54;96789.19;;;21.16;63.17
28000;BME280;15328;50.860;10.562;2023-06-22T04:25:54;96783.22;;;21.24;63.51
28000;BME280;15328;50.860;10.562;2023-06-22T04:30:56;96775.59;;;21.41;63.50
28000;BME280;15328;50.860;10.562;2023-06-22T04:35:58;96798.03;;;21.47;63.04
28000;BME280;15328;50.860;10.562;2023-06-22T04:41:01;96798.53;;;21.49;63.26
28000;BME280;15328;50.860;10.562;2023-06-22T04:46:02;96791.75;;;21.51;63.08
28000;BME280;15328;50.860;10.562;2023-06-22T04:51:03;96803.06;;;21.69;62.88
28000;BME280;15328;50.860;10.562;2023-06-22T04:56:04;96794.03;;;21.78;62.44
28000;BME280;15328;50.860;10.562;2023-06-22T05:01:05;96787.75;;;21.93;61.98
28000;BME280;15328;50.860;10.562;2023-06-22T05:06:05;96801.72;;;22.10;61.32
28000;BME280;15328;50.860;10.562;2023-06-22T05:11:06;96788.38;;;22.19;60.53
28000;BME280;15328;50.860;10.562;2023-06-22T05:16:06;96786.22;;;22.16;60.33
28000;BME280;15328;50.860;10.562;2023-06-22T05:21:07;96778.88;;;22.22;60.41
28000;BME280;15328;50.860;10.562;2023-06-22T05:26:07;96784.59;;;22.20;59.93
28000;BME280;15328;50.860;10.562;2023-06-22T05:31:10;96785.69;;;22.14;59.73
28000;BME280;15328;50.860;10.562;2023-06-22T05:36:10;96782.78;;;22.05;59.79
28000;BME280;15328;50.860;10.562;2023-06-22T05:41:11;96794.72;;;21.99;59.87
28000;BME280;15328;50.860;10.562;2023-06-22T05:46:11;96789.84;;;22.01;60.53
28000;BME280;15328;50.860;10.562;2023-06-22T05:51:12;96795.53;;;22.00;60.25
28000;BME280;15328;50.860;10.562;2023-06-22T05:56:12;96803.38;;;22.06;60.49
28000;BME280;15328;50.860;10.562;2023-06-22T06:01:13;96805.44;;;22.19;60.39
28000;BME280;15328;50.860;10.562;2023-06-22T06:06:16;96805.94;;;22.27;60.24
28000;BME280;15328;50.860;10.562;2023-06-22T06:11:17;96808.63;;;22.27;60.22
28000;BME280;15328;50.860;10.562;2023-06-22T06:16:17;96810.81;;;22.25;60.26
28000;BME280;15328;50.860;10.562;2023-06-22T06:21:17;96813.22;;;22.31;60.12
28000;BME280;15328;50.860;10.562;2023-06-22T06:26:18;96800.28;;;22.23;60.42
28000;BME280;15328;50.860;10.562;2023-06-22T06:31:23;96795.91;;;22.27;60.60
28000;BME280;15328;50.860;10.562;2023-06-22T06:36:23;96793.63;;;22.39;61.29
28000;BME280;15328;50.860;10.562;2023-06-22T06:41:23;96788.47;;;22.67;61.55
28000;BME280;15328;50.860;10.562;2023-06-22T06:46:24;96781.78;;;22.88;60.86
28000;BME280;15328;50.860;10.562;2023-06-22T06:51:24;96783.06;;;22.96;60.48
28000;BME280;15328;50.860;10.562;2023-06-22T06:56:25;96781.16;;;22.96;60.33
28000;BME280;15328;50.860;10.562;2023-06-22T07:01:25;96768.09;;;22.98;60.43
28000;BME280;15328;50.860;10.562;2023-06-22T07:06:25;96770.28;;;23.20;60.63
28000;BME280;15328;50.860;10.562;2023-06-22T07:11:29;96766.22;;;23.41;60.47
28000;BME280;15328;50.860;10.562;2023-06-22T07:16:29;96761.09;;;23.64;60.38
28000;BME280;15328;50.860;10.562;2023-06-22T07:21:31;96757.78;;;23.86;59.73
28000;BME280;15328;50.860;10.562;2023-06-22T07:26:32;96752.22;;;24.10;59.01
28000;BME280;15328;50.860;10.562;2023-06-22T07:31:32;96759.63;;;24.23;58.66
28000;BME280;15328;50.860;10.562;2023-06-22T07:36:33;96756.72;;;24.52;57.65
28000;BME280;15328;50.860;10.562;2023-06-22T07:41:35;96758.97;;;24.77;57.36
28000;BME280;15328;50.860;10.562;2023-06-22T07:46:36;96747.13;;;25.01;57.37
28000;BME280;15328;50.860;10.562;2023-06-22T07:51:36;96744.81;;;25.21;56.13
28000;BME280;15328;50.860;10.562;2023-06-22T07:56:37;96746.09;;;25.38;56.12
28000;BME280;15328;50.860;10.562;2023-06-22T08:01:37;96753.19;;;25.61;55.56
28000;BME280;15328;50.860;10.562;2023-06-22T08:06:37;96741.88;;;25.81;55.26
28000;BME280;15328;50.860;10.562;2023-06-22T08:11:38;96743.69;;;26.08;54.80
28000;BME280;15328;50.860;10.562;2023-06-22T08:16:38;96717.94;;;26.37;54.29
28000;BME280;15328;50.860;10.562;2023-06-22T08:21:38;96724.53;;;26.44;53.17
28000;BME280;15328;50.860;10.562;2023-06-22T08:26:39;96720.94;;;26.58;53.54
28000;BME280;15328;50.860;10.562;2023-06-22T08:31:39;96728.78;;;26.90;53.25
28000;BME280;15328;50.860;10.562;2023-06-22T08:36:40;96728.53;;;27.09;51.50
28000;BME280;15328;50.860;10.562;2023-06-22T08:41:43;96729.09;;;27.37;51.13
28000;BME280;15328;50.860;10.562;2023-06-22T08:46:43;96720.16;;;27.62;50.49
28000;BME280;15328;50.860;10.562;2023-06-22T08:51:44;96724.03;;;27.79;49.56
28000;BME280;15328;50.860;10.562;2023-06-22T08:56:45;96720.16;;;28.06;48.97
28000;BME280;15328;50.860;10.562;2023-06-22T09:01:46;96721.28;;;28.22;48.04
28000;BME280;15328;50.860;10.562;2023-06-22T09:06:48;96712.09;;;28.35;47.76
28000;BME280;15328;50.860;10.562;2023-06-22T09:11:50;96717.38;;;28.49;47.58
28000;BME280;15328;50.860;10.562;2023-06-22T09:16:50;96715.34;;;28.84;46.79
28000;BME280;15328;50.860;10.562;2023-06-22T09:21:50;96712.97;;;29.12;45.44
28000;BME280;15328;50.860;10.562;2023-06-22T09:26:51;96712.31;;;29.44;44.92
28000;BME280;15328;50.860;10.562;2023-06-22T09:31:51;96694.44;;;29.68;43.99
28000;BME280;15328;50.860;10.562;2023-06-22T09:36:53;96694.44;;;29.89;43.96
28000;BME280;15328;50.860;10.562;2023-06-22T09:41:55;96695.34;;;30.13;42.44
28000;BME280;15328;50.860;10.562;2023-06-22T09:46:55;96686.47;;;30.29;42.75
28000;BME280;15328;50.860;10.562;2023-06-22T09:51:55;96681.75;;;30.62;42.81
28000;BME280;15328;50.860;10.562;2023-06-22T09:56:56;96679.38;;;30.85;41.50
28000;BME280;15328;50.860;10.562;2023-06-22T10:01:56;96670.81;;;30.87;40.94
28000;BME280;15328;50.860;10.562;2023-06-22T10:06:57;96663.84;;;31.26;40.55
28000;BME280;15328;50.860;10.562;2023-06-22T10:11:57;96681.31;;;31.46;39.16
28000;BME280;15328;50.860;10.562;2023-06-22T10:16:57;96682.25;;;32.18;39.46
28000;BME280;15328;50.860;10.562;2023-06-22T10:21:58;96674.28;;;33.04;38.52
28000;BME280;15328;50.860;10.562;2023-06-22T10:26:58;96676.84;;;33.83;35.27
28000;BME280;15328;50.860;10.562;2023-06-22T10:31:58;96676.84;;;34.21;35.25
28000;BME280;15328;50.860;10.562;2023-06-22T10:36:59;96673.00;;;34.68;34.40
28000;BME280;15328;50.860;10.562;2023-06-22T10:41:59;96668.47;;;34.79;33.74
28000;BME280;15328;50.860;10.562;2023-06-22T10:46:59;96668.16;;;34.61;33.53
28000;BME280;15328;50.860;10.562;2023-06-22T10:52:00;96649.41;;;34.74;33.25
28000;BME280;15328;50.860;10.562;2023-06-22T10:57:01;96653.00;;;34.97;33.40
28000;BME280;15328;50.860;10.562;2023-06-22T11:02:01;96636.31;;;34.90;31.94
28000;BME280;15328;50.860;10.562;2023-06-22T11:07:02;96631.31;;;34.77;32.11
28000;BME280;15328;50.860;10.562;2023-06-22T11:12:03;96633.22;;;34.50;32.37
28000;BME280;15328;50.860;10.562;2023-06-22T11:17:04;96620.47;;;34.42;32.40
28000;BME280;15328;50.860;10.562;2023-06-22T11:22:04;96623.78;;;34.51;33.08
28000;BME280;15328;50.860;10.562;2023-06-22T11:27:05;96615.31;;;34.63;33.49
28000;BME280;15328;50.860;10.562;2023-06-22T11:32:06;96609.00;;;34.62;32.42
28000;BME280;15328;50.860;10.562;2023-06-22T11:37:07;96604.66;;;34.38;32.73
28000;BME280;15328;50.860;10.562;2023-06-22T11:42:11;96583.94;;;34.06;32.00
28000;BME280;15328;50.860;10.562;2023-06-22T11:47:11;96585.22;;;34.12;33.28
28000;BME280;15328;50.860;10.562;2023-06-22T11:52:12;96573.00;;;34.55;32.92
28000;BME280;15328;50.860;10.562;2023-06-22T11:57:13;96557.06;;;34.71;31.75
28000;BME280;15328;50.860;10.562;2023-06-22T12:02:13;96535.72;;;34.68;32.15
28000;BME280;15328;50.860;10.562;2023-06-22T12:07:14;96528.03;;;34.81;32.50
28000;BME280;15328;50.860;10.562;2023-06-22T12:12:14;96528.56;;;34.90;31.30
28000;BME280;15328;50.860;10.562;2023-06-22T12:17:15;96508.69;;;34.81;31.50
28000;BME280;15328;50.860;10.562;2023-06-22T12:22:16;96498.63;;;34.20;30.66
28000;BME280;15328;50.860;10.562;2023-06-22T12:27:17;96491.47;;;34.16;32.17
28000;BME280;15328;50.860;10.562;2023-06-22T12:32:18;96484.25;;;34.57;32.44
28000;BME280;15328;50.860;10.562;2023-06-22T12:37:18;96493.50;;;34.94;31.62
28000;BME280;15328;50.860;10.562;2023-06-22T12:42:19;96488.97;;;35.09;30.82
28000;BME280;15328;50.860;10.562;2023-06-22T12:47:19;96482.53;;;34.75;31.28
28000;BME280;15328;50.860;10.562;2023-06-22T12:52:20;96470.00;;;34.28;31.71
28000;BME280;15328;50.860;10.562;2023-06-22T12:57:20;96469.22;;;34.05;32.42
28000;BME280;15328;50.860;10.562;2023-06-22T13:02:21;96472.34;;;33.61;33.31
28000;BME280;15328;50.860;10.562;2023-06-22T13:07:22;96462.38;;;33.14;34.32
28000;BME280;15328;50.860;10.562;2023-06-22T13:12:22;96454.44;;;32.74;35.43
28000;BME280;15328;50.860;10.562;2023-06-22T13:17:22;96444.53;;;32.54;35.28
28000;BME280;15328;50.860;10.562;2023-06-22T13:22:33;96453.47;;;32.16;36.23
28000;BME280;15328;50.860;10.562;2023-06-22T13:27:41;96441.66;;;32.00;36.23
28000;BME280;15328;50.860;10.562;2023-06-22T13:32:42;96428.53;;;32.09;36.77
28000;BME280;15328;50.860;10.562;2023-06-22T13:37:42;96424.16;;;32.23;36.54
28000;BME280;15328;50.860;10.562;2023-06-22T13:42:42;96399.41;;;32.39;35.79
28000;BME280;15328;50.860;10.562;2023-06-22T13:47:43;96390.72;;;32.56;36.67
28000;BME280;15328;50.860;10.562;2023-06-22T13:52:43;96370.28;;;32.57;36.11
28000;BME280;15328;50.860;10.562;2023-06-22T13:57:43;96349.44;;;32.56;36.45
28000;BME280;15328;50.860;10.562;2023-06-22T14:02:44;96329.28;;;32.52;36.06
28000;BME280;15328;50.860;10.562;2023-06-22T14:07:45;96351.59;;;32.47;35.77
28000;BME280;15328;50.860;10.562;2023-06-22T14:12:45;96349.19;;;32.26;35.63
28000;BME280;15328;50.860;10.562;2023-06-22T14:17:46;96338.44;;;32.37;36.07
28000;BME280;15328;50.860;10.562;2023-06-22T14:22:46;96334.44;;;32.19;36.22
28000;BME280;15328;50.860;10.562;2023-06-22T14:27:46;96315.59;;;32.02;36.20
28000;BME280;15328;50.860;10.562;2023-06-22T14:32:47;96309.53;;;32.12;36.81
28000;BME280;15328;50.860;10.562;2023-06-22T14:37:47;96281.34;;;31.99;36.19
28000;BME280;15328;50.860;10.562;2023-06-22T14:42:48;96280.25;;;31.68;36.85
28000;BME280;15328;50.860;10.562;2023-06-22T14:47:49;96289.41;;;31.57;37.74
28000;BME280;15328;50.860;10.562;2023-06-22T14:52:49;96276.75;;;31.52;38.08
28000;BME280;15328;50.860;10.562;2023-06-22T14:57:49;96265.75;;;31.52;38.87
28000;BME280;15328;50.860;10.562;2023-06-22T15:02:50;96251.22;;;31.52;38.79
28000;BME280;15328;50.860;10.562;2023-06-22T15:07:51;96255.44;;;31.49;38.96
28000;BME280;15328;50.860;10.562;2023-06-22T15:12:51;96255.81;;;31.48;39.34
28000;BME280;15328;50.860;10.562;2023-06-22T15:17:52;96249.72;;;31.39;39.71
28000;BME280;15328;50.860;10.562;2023-06-22T15:22:52;96256.91;;;31.27;39.71
28000;BME280;15328;50.860;10.562;2023-06-22T15:27:53;96266.25;;;31.11;40.13
28000;BME280;15328;50.860;10.562;2023-06-22T15:32:53;96277.44;;;31.02;39.80
28000;BME280;15328;50.860;10.562;2023-06-22T15:37:55;96274.31;;;30.88;41.24
28000;BME280;15328;50.860;10.562;2023-06-22T15:42:55;96258.63;;;30.72;41.44
28000;BME280;15328;50.860;10.562;2023-06-22T15:47:55;96277.53;;;30.62;41.44
28000;BME280;15328;50.860;10.562;2023-06-22T15:52:56;96265.69;;;30.45;41.32
28000;BME280;15328;50.860;10.562;2023-06-22T15:57:56;96246.00;;;30.28;39.23
28000;BME280;15328;50.860;10.562;2023-06-22T16:02:57;96233.22;;;30.20;39.75
28000;BME280;15328;50.860;10.562;2023-06-22T16:07:57;96208.19;;;30.21;39.57
28000;BME280;15328;50.860;10.562;2023-06-22T16:12:57;96197.94;;;30.18;39.38
28000;BME280;15328;50.860;10.562;2023-06-22T16:17:58;96192.44;;;30.18;40.77
28000;BME280;15328;50.860;10.562;2023-06-22T16:22:58;96184.41;;;30.25;40.58
28000;BME280;15328;50.860;10.562;2023-06-22T16:27:58;96177.84;;;30.30;39.89
28000;BME280;15328;50.860;10.562;2023-06-22T16:32:59;96182.63;;;30.33;39.27
28000;BME280;15328;50.860;10.562;2023-06-22T16:38:02;96168.84;;;30.29;40.47
28000;BME280;15328;50.860;10.562;2023-06-22T16:43:06;96139.81;;;30.28;40.78
28000;BME280;15328;50.860;10.562;2023-06-22T16:48:08;96123.88;;;30.34;40.93
28000;BME280;15328;50.860;10.562;2023-06-22T16:53:09;96125.47;;;30.35;40.58
28000;BME280;15328;50.860;10.562;2023-06-22T16:58:11;96121.34;;;30.41;40.30
28000;BME280;15328;50.860;10.562;2023-06-22T17:03:17;96120.28;;;30.45;40.54
28000;BME280;15328;50.860;10.562;2023-06-22T17:08:20;96107.97;;;30.39;41.70
28000;BME280;15328;50.860;10.562;2023-06-22T17:13:21;96108.13;;;30.31;40.83
28000;BME280;15328;50.860;10.562;2023-06-22T17:18:24;96109.81;;;30.20;42.30
28000;BME280;15328;50.860;10.562;2023-06-22T17:23:26;96105.28;;;30.11;42.29
28000;BME280;15328;50.860;10.562;2023-06-22T17:28:27;96122.81;;;29.95;42.56
28000;BME280;15328;50.860;10.562;2023-06-22T17:33:48;96120.72;;;29.76;43.51
28000;BME280;15328;50.860;10.562;2023-06-22T17:38:49;96130.59;;;29.65;43.86
28000;BME280;15328;50.860;10.562;2023-06-22T17:43:50;96138.84;;;29.52;43.48
28000;BME280;15328;50.860;10.562;2023-06-22T17:48:52;96126.19;;;29.36;43.47
28000;BME280;15328;50.860;10.562;2023-06-22T17:53:52;96132.91;;;29.26;43.43
28000;BME280;15328;50.860;10.562;2023-06-22T17:58:53;96134.91;;;29.13;43.74
28000;BME280;15328;50.860;10.562;2023-06-22T18:03:54;96125.53;;;29.02;44.12
28000;BME280;15328;50.860;10.562;2023-06-22T18:08:58;96115.75;;;28.89;44.44
28000;BME280;15328;50.860;10.562;2023-06-22T18:14:03;96120.19;;;28.81;44.42
28000;BME280;15328;50.860;10.562;2023-06-22T18:19:04;96119.34;;;28.69;44.78
28000;BME280;15328;50.860;10.562;2023-06-22T18:24:05;96128.81;;;28.59;44.44
28000;BME280;15328;50.860;10.562;2023-06-22T18:29:05;96135.53;;;28.49;44.75
28000;BME280;15328;50.860;10.562;2023-06-22T18:34:09;96129.25;;;28.37;44.99
28000;BME280;15328;50.860;10.562;2023-06-22T18:39:12;96179.06;;;28.21;44.76
28000;BME280;15328;50.860;10.562;2023-06-22T18:44:21;96163.22;;;28.15;42.83
28000;BME280;15328;50.860;10.562;2023-06-22T18:49:22;96188.84;;;27.89;43.06
28000;BME280;15328;50.860;10.562;2023-06-22T18:54:40;96173.94;;;27.66;42.42
28000;BME280;15328;50.860;10.562;2023-06-22T18:59:51;96171.91;;;27.54;42.23
28000;BME280;15328;50.860;10.562;2023-06-22T19:10:27;96172.41;;;26.97;42.59
28000;BME280;15328;50.860;10.562;2023-06-22T19:15:30;96148.09;;;26.75;42.61
28000;BME280;15328;50.860;10.562;2023-06-22T19:20:34;96145.03;;;26.38;43.60
28000;BME280;15328;50.860;10.562;2023-06-22T19:25:34;96139.94;;;26.19;43.92
28000;BME280;15328;50.860;10.562;2023-06-22T19:30:35;96139.16;;;26.02;44.62
28000;BME280;15328;50.860;10.562;2023-06-22T19:35:35;96142.91;;;25.80;45.32
28000;BME280;15328;50.860;10.562;2023-06-22T19:40:38;96128.91;;;25.64;46.47
28000;BME280;15328;50.860;10.562;2023-06-22T19:45:41;96139.66;;;25.52;47.04
28000;BME280;15328;50.860;10.562;2023-06-22T19:50:42;96147.19;;;25.38;47.52
28000;BME280;15328;50.860;10.562;2023-06-22T19:55:46;96169.44;;;25.22;48.32
28000;BME280;15328;50.860;10.562;2023-06-22T20:00:47;96196.44;;;25.10;48.89
28000;BME280;15328;50.860;10.562;2023-06-22T20:06:10;96205.56;;;25.06;48.96
28000;BME280;15328;50.860;10.562;2023-06-22T20:11:10;96203.16;;;25.04;49.40
28000;BME280;15328;50.860;10.562;2023-06-22T20:16:11;96186.56;;;24.92;49.47
28000;BME280;15328;50.860;10.562;2023-06-22T20:21:13;96181.41;;;24.73;49.70
28000;BME280;15328;50.860;10.562;2023-06-22T20:26:13;96169.47;;;24.52;50.77
28000;BME280;15328;50.860;10.562;2023-06-22T20:31:16;96148.19;;;24.45;51.41
28000;BME280;15328;50.860;10.562;2023-06-22T20:36:17;96139.38;;;24.40;51.67
28000;BME280;15328;50.860;10.562;2023-06-22T20:41:18;96127.63;;;24.30;52.37
28000;BME280;15328;50.860;10.562;2023-06-22T20:46:18;96152.69;;;24.27;52.79
28000;BME280;15328;50.860;10.562;2023-06-22T20:51:18;96166.97;;;24.33;52.58
28000;BME280;15328;50.860;10.562;2023-06-22T20:56:19;96169.69;;;24.33;53.08
28000;BME280;15328;50.860;10.562;2023-06-22T21:01:19;96159.94;;;24.32;53.02
28000;BME280;15328;50.860;10.562;2023-06-22T21:06:20;96155.94;;;24.29;53.09
28000;BME280;15328;50.860;10.562;2023-06-22T21:11:20;96180.97;;;24.26;53.18
28000;BME280;15328;50.860;10.562;2023-06-22T21:16:20;96168.16;;;24.18;53.33
28000;BME280;15328;50.860;10.562;2023-06-22T21:21:21;96183.00;;;24.12;53.42
28000;BME280;15328;50.860;10.562;2023-06-22T21:26:21;96179.22;;;23.99;53.25
28000;BME280;15328;50.860;10.562;2023-06-22T21:31:21;96194.47;;;23.87;53.25
28000;BME280;15328;50.860;10.562;2023-06-22T21:36:22;96203.66;;;23.77;53.55
28000;BME280;15328;50.860;10.562;2023-06-22T21:41:22;96212.72;;;23.72;53.55
28000;BME280;15328;50.860;10.562;2023-06-22T21:46:23;96222.16;;;23.75;53.95
28000;BME280;15328;50.860;10.562;2023-06-22T21:51:23;96237.28;;;23.67;54.92
28000;BME280;15328;50.860;10.562;2023-06-22T21:56:24;96239.97;;;23.54;55.29
28000;BME280;15328;50.860;10.562;2023-06-22T22:01:24;96253.19;;;23.33;55.87
28000;BME280;15328;50.860;10.562;2023-06-22T22:06:24;96250.69;;;23.09;56.99
28000;BME280;15328;50.860;10.562;2023-06-22T22:11:26;96235.94;;;23.01;57.96
28000;BME280;15328;50.860;10.562;2023-06-22T22:16:27;96237.91;;;22.96;58.93
28000;BME280;15328;50.860;10.562;2023-06-22T22:21:27;96232.50;;;22.82;59.55
28000;BME280;15328;50.860;10.562;2023-06-22T22:26:28;96228.25;;;22.76;60.10
28000;BME280;15328;50.860;10.562;2023-06-22T22:31:28;96221.00;;;22.71;60.46
28000;BME280;15328;50.860;10.562;2023-06-22T22:36:28;96209.59;;;22.74;61.19
28000;BME280;15328;50.860;10.562;2023-06-22T22:41:29;96191.59;;;22.78;62.07
28000;BME280;15328;50.860;10.562;2023-06-22T22:46:29;96209.72;;;22.83;61.86
28000;BME280;15328;50.860;10.562;2023-06-22T22:51:29;96190.81;;;22.78;62.10
28000;BME280;15328;50.860;10.562;2023-06-22T22:56:30;96194.31;;;22.78;62.27
28000;BME280;15328;50.860;10.562;2023-06-22T23:01:30;96196.03;;;22.74;62.06
28000;BME280;15328;50.860;10.562;2023-06-22T23:06:31;96203.56;;;22.77;62.17
28000;BME280;15328;50.860;10.562;2023-06-22T23:11:31;96199.44;;;22.80;61.93
28000;BME280;15328;50.860;10.562;2023-06-22T23:16:31;96178.84;;;22.65;62.57
28000;BME280;15328;50.860;10.562;2023-06-22T23:21:32;96167.28;;;22.60;62.50
28000;BME280;15328;50.860;10.562;2023-06-22T23:26:33;96166.28;;;22.56;62.57
28000;BME280;15328;50.860;10.562;2023-06-22T23:31:33;96158.97;;;22.56;62.86
28000;BME280;15328;50.860;10.562;2023-06-22T23:36:34;96139.09;;;22.61;63.25
28000;BME280;15328;50.860;10.562;2023-06-22T23:41:35;96135.56;;;22.60;62.98
28000;BME280;15328;50.860;10.562;2023-06-22T23:46:35;96127.75;;;22.59;62.85
28000;BME280;15328;50.860;10.562;2023-06-22T23:51:35;96120.31;;;22.64;63.40
28000;BME280;15328;50.860;10.562;2023-06-22T23:56:36;96123.63;;;22.61;62.96
